Reefer Bay — V2CY — position and weather

sailwx.info

Track history (hours):
 
Tides and Currents Weather Stations Pressure Air Temp Water Temp Dewpoint Dewpoint Depression Visibility Wind Speed Wind Dir Waves Ship Positions

Reefer Bay

Last reported at 2018-Feb-19 22:28 UTC. Time now 2018-Feb-23 06:19 UTC.
Position N 06°09' E 001°17'.

Length 220 m; draft 11.7 m.

Type: Ship. MMSI: 304504000.

Date/timePositionNaut miles runAvg speedWind from/ knotsBaromVisibWave heightAir tempDewpointWater temp
2018-Feb-19 22:28N 06°09' E 001°17'0 0.0
2018-Feb-19 22:00N 06°09' E 001°17'0 0.0
2018-Feb-19 21:24N 06°09' E 001°17'0 0.0
2018-Feb-19 20:54N 06°09' E 001°17'0 0.0
2018-Feb-19 20:30N 06°09' E 001°17'0 0.0
2018-Feb-19 19:57N 06°09' E 001°17'0 0.0
2018-Feb-19 19:17N 06°09' E 001°17'0 0.0
2018-Feb-19 18:55N 06°09' E 001°17'7 0.4
2018-Feb-19 01:40N 06°02' E 001°19'0 0.0
2018-Feb-19 00:31N 06°02' E 001°19'0 0.0
2018-Feb-19 00:04N 06°02' E 001°19'0 0.0
2018-Feb-18 23:58N 06°02' E 001°19'0 0.0
2018-Feb-18 19:43N 06°02' E 001°19'0 0.0
2018-Feb-18 17:49N 06°02' E 001°19'52 1.1
2018-Feb-16 19:08N 05°17' E 000°52'518.5
2018-Feb-16 18:53N 05°13' E 000°49'718.7
2018-Feb-16 18:30N 05°07' E 000°45'1118.5
2018-Feb-16 17:56N 05°02' E 000°35'817.5
2018-Feb-16 17:29N 04°59' E 000°28'1115.7
2018-Feb-16 16:47N 04°55' E 000°18'1115.7
2018-Feb-16 16:03N 04°51' E 000°07'215.7
2018-Feb-16 15:56N 04°51' E 000°05'815.8
2018-Feb-16 15:26N 04°48' W 000°02'  
2018-Feb-10 21:28N 28°27' W 013°30'715.4
2018-Feb-10 20:59N 28°34' W 013°26'715.5
2018-Feb-10 20:30N 28°40' W 013°23'815.5
2018-Feb-10 19:57N 28°48' W 013°19'715.5
2018-Feb-10 19:29N 28°55' W 013°16'815.4
2018-Feb-10 18:58N 29°02' W 013°12'  
Track history (hours):
 
Tides and Currents Weather Stations Pressure Air Temp Water Temp Dewpoint Dewpoint Depression Visibility Wind Speed Wind Dir Waves Ship Positions

Reefer Bay

Last reported at 2018-Feb-19 22:28 UTC. Time now 2018-Feb-23 06:19 UTC.
Position N 06°09' E 001°17'.

Length 220 m; draft 11.7 m.

Type: Ship. MMSI: 304504000.

Date/timePositionNaut miles runAvg speedWind from/ knotsBaromVisibWave heightAir tempDewpointWater temp
2018-Feb-19 22:28N 06°09' E 001°17'0 0.0
2018-Feb-19 22:00N 06°09' E 001°17'0 0.0
2018-Feb-19 21:24N 06°09' E 001°17'0 0.0
2018-Feb-19 20:54N 06°09' E 001°17'0 0.0
2018-Feb-19 20:30N 06°09' E 001°17'0 0.0
2018-Feb-19 19:57N 06°09' E 001°17'0 0.0
2018-Feb-19 19:17N 06°09' E 001°17'0 0.0
2018-Feb-19 18:55N 06°09' E 001°17'7 0.4
2018-Feb-19 01:40N 06°02' E 001°19'0 0.0
2018-Feb-19 00:31N 06°02' E 001°19'0 0.0
2018-Feb-19 00:04N 06°02' E 001°19'0 0.0
2018-Feb-18 23:58N 06°02' E 001°19'0 0.0
2018-Feb-18 19:43N 06°02' E 001°19'0 0.0
2018-Feb-18 17:49N 06°02' E 001°19'52 1.1
2018-Feb-16 19:08N 05°17' E 000°52'518.5
2018-Feb-16 18:53N 05°13' E 000°49'718.7
2018-Feb-16 18:30N 05°07' E 000°45'1118.5
2018-Feb-16 17:56N 05°02' E 000°35'817.5
2018-Feb-16 17:29N 04°59' E 000°28'1115.7
2018-Feb-16 16:47N 04°55' E 000°18'1115.7
2018-Feb-16 16:03N 04°51' E 000°07'215.7
2018-Feb-16 15:56N 04°51' E 000°05'815.8
2018-Feb-16 15:26N 04°48' W 000°02'  
2018-Feb-10 21:28N 28°27' W 013°30'715.4
2018-Feb-10 20:59N 28°34' W 013°26'715.5
2018-Feb-10 20:30N 28°40' W 013°23'815.5
2018-Feb-10 19:57N 28°48' W 013°19'715.5
2018-Feb-10 19:29N 28°55' W 013°16'815.4
2018-Feb-10 18:58N 29°02' W 013°12'  

Dump ship's entire track history